createdAt,value
2022-09-25T00:02:25.658Z,2.65
2022-09-25T00:07:27.242Z,3.35
2022-09-25T00:12:28.690Z,2.58
2022-09-25T00:17:30.130Z,2.67
2022-09-25T00:22:31.530Z,3.00
2022-09-25T00:27:32.933Z,2.53
2022-09-25T00:32:34.706Z,2.53
2022-09-25T00:37:37.141Z,2.90
2022-09-25T00:42:39.742Z,2.50
2022-09-25T00:48:06.497Z,3.03
2022-09-25T00:53:27.258Z,4.22
2022-09-25T00:58:30.896Z,3.05
2022-09-25T01:03:32.431Z,3.10
2022-09-25T01:08:34.805Z,3.85
2022-09-25T01:13:36.678Z,3.83
2022-09-25T01:19:01.774Z,3.70
2022-09-25T01:24:41.197Z,3.60
2022-09-25T01:29:53.675Z,4.13
2022-09-25T01:35:10.623Z,3.55
2022-09-25T01:40:28.540Z,3.95
2022-09-25T01:45:39.081Z,2.78
2022-09-25T01:50:47.141Z,4.40
2022-09-25T01:55:54.491Z,3.85
2022-09-25T02:01:04.294Z,3.60
2022-09-25T02:06:08.923Z,3.55
2022-09-25T02:11:11.087Z,4.35
2022-09-25T02:16:19.209Z,4.55
2022-09-25T02:21:32.839Z,3.63
2022-09-25T02:26:35.248Z,3.53
2022-09-25T02:31:42.204Z,3.67
2022-09-25T02:36:43.982Z,3.85
2022-09-25T02:42:00.369Z,3.88
2022-09-25T02:47:07.563Z,3.97
2022-09-25T02:52:38.166Z,3.78
2022-09-25T02:58:00.143Z,4.18
2022-09-25T03:03:03.141Z,4.30
2022-09-25T03:08:06.307Z,4.20
2022-09-25T03:13:22.659Z,3.63
2022-09-25T03:18:25.003Z,3.90
2022-09-25T03:23:26.507Z,3.33
2022-09-25T03:28:28.113Z,3.92
2022-09-25T03:33:33.552Z,5.10
2022-09-25T03:38:35.091Z,5.88
2022-09-25T03:43:38.233Z,5.85
2022-09-25T03:48:41.186Z,8.85
2022-09-25T03:53:42.587Z,8.05
2022-09-25T03:58:44.349Z,8.90
2022-09-25T04:03:45.831Z,7.60
2022-09-25T04:08:48.544Z,8.18
2022-09-25T04:13:50.270Z,7.88
2022-09-25T04:18:51.727Z,8.30
2022-09-25T04:23:53.207Z,7.75
2022-09-25T04:28:54.743Z,8.10
2022-09-25T04:33:56.264Z,5.55
2022-09-25T04:38:57.732Z,4.63
2022-09-25T04:43:59.279Z,5.10
2022-09-25T04:49:00.839Z,4.05
2022-09-25T04:54:02.351Z,5.53
2022-09-25T04:59:03.907Z,8.38
2022-09-25T05:04:08.600Z,8.02
2022-09-25T05:09:10.682Z,8.38
2022-09-25T05:14:12.155Z,5.97
2022-09-25T05:19:13.607Z,4.88
2022-09-25T05:24:15.047Z,5.88
2022-09-25T05:29:16.488Z,5.68
2022-09-25T05:34:17.972Z,5.10
2022-09-25T05:39:19.460Z,3.47
2022-09-25T05:44:20.867Z,3.47
2022-09-25T05:49:23.212Z,2.92
2022-09-25T05:54:24.785Z,4.32
2022-09-25T05:59:26.177Z,4.43
2022-09-25T06:04:27.594Z,3.33
2022-09-25T06:09:29.062Z,4.10
2022-09-25T06:14:30.490Z,4.53
2022-09-25T06:19:31.938Z,4.63
2022-09-25T06:24:33.414Z,4.43
2022-09-25T06:29:35.361Z,3.83
2022-09-25T06:34:36.866Z,3.28
2022-09-25T06:39:38.306Z,3.72
2022-09-25T06:44:39.711Z,4.22
2022-09-25T06:49:41.130Z,4.05
2022-09-25T06:54:44.299Z,3.50
2022-09-25T06:59:46.078Z,3.83
2022-09-25T07:04:50.480Z,4.13
2022-09-25T07:09:52.005Z,3.72
2022-09-25T07:14:53.545Z,4.47
2022-09-25T07:19:55.252Z,4.03
2022-09-25T07:24:56.721Z,4.38
2022-09-25T07:29:58.187Z,4.47
2022-09-25T07:34:59.599Z,5.20
2022-09-25T07:40:01.319Z,4.50
2022-09-25T07:45:03.069Z,5.07
2022-09-25T07:50:04.808Z,4.97
2022-09-25T07:55:06.850Z,5.45
2022-09-25T08:00:08.879Z,6.30
2022-09-25T08:05:11.158Z,5.30
2022-09-25T08:10:12.596Z,5.95
2022-09-25T08:15:14.146Z,5.50
2022-09-25T08:20:15.725Z,5.32
2022-09-25T08:25:17.193Z,7.00
2022-09-25T08:30:18.816Z,5.80
2022-09-25T08:35:20.715Z,5.70
2022-09-25T08:40:27.038Z,5.18
2022-09-25T08:45:39.942Z,4.60
2022-09-25T08:50:41.913Z,4.03
2022-09-25T08:55:43.604Z,3.20
2022-09-25T09:00:45.625Z,3.97
2022-09-25T09:05:51.873Z,4.90
2022-09-25T09:11:06.305Z,3.05
2022-09-25T09:16:28.801Z,2.65
2022-09-25T09:21:56.453Z,1.90
2022-09-25T09:26:57.854Z,0.80
2022-09-25T09:32:14.117Z,0.43
2022-09-25T09:37:25.933Z,0.57
2022-09-25T09:42:39.654Z,0.45
2022-09-25T09:47:54.676Z,0.47
2022-09-25T09:53:03.788Z,0.10
2022-09-25T09:58:33.292Z,0.68
2022-09-25T10:03:38.735Z,0.50
2022-09-25T10:08:40.268Z,0.57
2022-09-25T10:13:42.741Z,0.60
2022-09-25T10:18:48.936Z,0.47
2022-09-25T10:23:54.996Z,0.22
2022-09-25T10:28:58.809Z,0.15
2022-09-25T10:34:05.288Z,0.40
2022-09-25T10:39:43.096Z,0.80
2022-09-25T10:44:45.324Z,0.50
2022-09-25T10:49:47.780Z,1.08
2022-09-25T10:54:49.338Z,1.40
2022-09-25T10:59:52.858Z,0.68
2022-09-25T11:04:56.951Z,0.43
2022-09-25T11:10:00.352Z,0.65
2022-09-25T11:15:06.081Z,0.80
2022-09-25T11:20:16.542Z,0.70
2022-09-25T11:25:28.486Z,0.52
2022-09-25T11:30:40.351Z,0.60
2022-09-25T11:36:06.050Z,0.70
2022-09-25T11:41:16.982Z,0.55
2022-09-25T11:46:50.790Z,0.55
2022-09-25T11:52:10.442Z,0.68
2022-09-25T11:57:34.386Z,0.60
2022-09-25T12:03:04.224Z,0.90
2022-09-25T12:08:39.169Z,0.90
2022-09-25T12:13:46.677Z,0.55
2022-09-25T12:19:22.333Z,0.73
2022-09-25T12:24:49.140Z,0.43
2022-09-25T12:30:05.228Z,0.63
2022-09-25T12:35:32.817Z,0.52
2022-09-25T12:40:40.489Z,0.65
2022-09-25T12:45:49.138Z,0.80
2022-09-25T12:51:19.814Z,0.40
2022-09-25T12:56:46.747Z,0.40
2022-09-25T13:02:10.741Z,0.55
2022-09-25T13:07:27.777Z,1.67
2022-09-25T13:12:39.514Z,1.20
2022-09-25T13:17:41.785Z,0.52
2022-09-25T13:22:43.309Z,0.70
2022-09-25T13:27:46.569Z,2.17
2022-09-25T13:32:55.355Z,1.30
2022-09-25T13:38:11.272Z,0.70
2022-09-25T13:43:24.232Z,0.30
2022-09-25T13:48:31.616Z,0.50
2022-09-25T13:53:57.719Z,0.50
2022-09-25T13:59:02.010Z,0.57
2022-09-25T14:04:31.709Z,0.65
2022-09-25T14:09:34.330Z,0.98
2022-09-25T14:14:56.047Z,1.13
2022-09-25T14:20:00.016Z,0.65
2022-09-25T14:25:01.766Z,0.90
2022-09-25T14:30:11.357Z,0.70
2022-09-25T14:35:37.527Z,0.43
2022-09-25T14:41:01.342Z,0.60
2022-09-25T14:46:10.306Z,0.20
2022-09-25T14:51:25.531Z,1.05
2022-09-25T14:56:30.131Z,0.35
2022-09-25T15:01:32.990Z,0.30
2022-09-25T15:06:37.012Z,0.40
2022-09-25T15:11:43.447Z,0.50
2022-09-25T15:16:45.109Z,0.65
2022-09-25T15:21:47.793Z,0.70
2022-09-25T15:26:55.010Z,0.70
2022-09-25T15:31:56.643Z,1.00
2022-09-25T15:37:30.503Z,1.00
2022-09-25T15:42:32.835Z,1.15
2022-09-25T15:47:34.209Z,1.30
2022-09-25T15:52:35.789Z,1.05
2022-09-25T15:57:40.019Z,0.60
2022-09-25T16:02:53.233Z,0.90
2022-09-25T16:08:16.386Z,0.80
2022-09-25T16:13:24.483Z,1.05
2022-09-25T16:18:39.090Z,14.75
2022-09-25T16:23:41.584Z,7.18
2022-09-25T16:28:59.678Z,2.83
2022-09-25T16:34:01.309Z,1.42
2022-09-25T16:39:08.570Z,0.68
2022-09-25T16:44:21.048Z,0.85
2022-09-25T16:49:24.410Z,0.70
2022-09-25T16:54:28.450Z,1.60
2022-09-25T16:59:30.532Z,1.80
2022-09-25T17:04:33.860Z,0.60
2022-09-25T17:09:35.527Z,0.38
2022-09-25T17:14:37.019Z,1.35
2022-09-25T17:19:38.532Z,0.50
2022-09-25T17:24:39.959Z,0.57
2022-09-25T17:29:42.455Z,0.30
2022-09-25T17:34:46.969Z,0.10
2022-09-25T17:39:49.716Z,0.22
2022-09-25T17:44:51.130Z,0.85
2022-09-25T17:49:52.585Z,1.38
2022-09-25T17:54:54.077Z,0.50
2022-09-25T17:59:55.554Z,0.20
2022-09-25T18:04:56.949Z,0.52
2022-09-25T18:09:58.559Z,1.02
2022-09-25T18:15:00.090Z,1.00
2022-09-25T18:20:01.979Z,0.40
2022-09-25T18:25:04.075Z,0.75
2022-09-25T18:30:06.238Z,0.77
2022-09-25T18:35:09.004Z,2.05
2022-09-25T18:40:13.091Z,2.33
2022-09-25T18:45:15.201Z,1.20
2022-09-25T18:50:20.613Z,1.92
2022-09-25T18:55:22.671Z,1.02
2022-09-25T19:00:24.262Z,1.55
2022-09-25T19:05:25.872Z,1.23
2022-09-25T19:10:27.338Z,1.15
2022-09-25T19:15:29.017Z,0.70
2022-09-25T19:20:30.678Z,1.10
2022-09-25T19:25:32.143Z,0.98
2022-09-25T19:30:33.619Z,1.38
2022-09-25T19:35:34.984Z,0.70
2022-09-25T19:40:38.965Z,0.80
2022-09-25T19:45:40.447Z,0.63
2022-09-25T19:50:42.253Z,0.57
2022-09-25T19:55:43.667Z,0.30
2022-09-25T20:00:45.281Z,0.47
2022-09-25T20:05:46.902Z,0.20
2022-09-25T20:10:48.329Z,0.55
2022-09-25T20:15:49.818Z,0.45
2022-09-25T20:20:51.461Z,0.20
2022-09-25T20:25:53.054Z,0.52
2022-09-25T20:30:54.642Z,0.80
2022-09-25T20:35:59.868Z,0.32
2022-09-25T20:41:02.614Z,0.40
2022-09-25T20:46:09.810Z,0.40
2022-09-25T20:51:15.503Z,0.45
2022-09-25T20:56:17.653Z,1.05
2022-09-25T21:01:22.508Z,0.50
2022-09-25T21:06:26.663Z,0.60
2022-09-25T21:11:30.125Z,0.95
2022-09-25T21:16:33.126Z,0.45
2022-09-25T21:21:34.781Z,0.30
2022-09-25T21:26:36.418Z,0.22
2022-09-25T21:31:43.769Z,0.50
2022-09-25T21:36:48.598Z,0.40
2022-09-25T21:41:50.493Z,0.40
2022-09-25T21:46:52.051Z,0.57
2022-09-25T21:51:53.548Z,0.60
2022-09-25T21:56:55.056Z,0.32
2022-09-25T22:01:56.586Z,0.20
2022-09-25T22:06:58.038Z,0.57
2022-09-25T22:11:59.585Z,0.30
2022-09-25T22:17:01.172Z,0.35
2022-09-25T22:22:02.758Z,0.40
2022-09-25T22:27:04.174Z,0.28
2022-09-25T22:32:05.666Z,0.20
2022-09-25T22:37:07.124Z,0.50
2022-09-25T22:42:08.620Z,0.40
2022-09-25T22:47:10.083Z,0.20
2022-09-25T22:52:11.578Z,0.32
2022-09-25T22:57:13.009Z,0.45
2022-09-25T23:02:14.477Z,0.25
2022-09-25T23:07:15.927Z,0.15
2022-09-25T23:12:17.483Z,0.43
2022-09-25T23:17:19.017Z,0.40
2022-09-25T23:22:20.516Z,0.20
2022-09-25T23:27:21.997Z,0.20
2022-09-25T23:32:23.421Z,0.50
2022-09-25T23:37:24.919Z,0.30
2022-09-25T23:42:26.439Z,0.40
2022-09-25T23:47:27.846Z,1.85
2022-09-25T23:52:29.630Z,0.30
2022-09-25T23:57:31.174Z,0.20
